Globe, Arizona
Current Conditions -  °F | °C
As of 10:50 PM on Friday 19 Dec 2014 (Local Time) from KIWA Reporting Station
Few Clouds Few Clouds  
Wind Chill: 43°   Ceiling: Unl
Heat Index: 43°   Visibility: 20mi
Dew Point: 39°   Wind: 3mph
Humidity: 87%   Direction: 30°NNE
Pressure: 30.15"   Gusts: NA
Location:  33.4°N, 110.78°W
Report Text: KIWA 200550Z 03003KT 20SM FEW250 06/04 A3015
Loading
Personal Weather Stations






























Interactive Weather Map New forecast layout! Learn more

10-Day Weather Forecast

Advertisements
Track Severe Weather on mobile